Grand Rivers, Kentucky
Current Conditions -  °F | °C
As of 5:55 PM on Wednesday 26 Nov 2014 (Local Time) from K5M9 Reporting Station
Moderate Rain Moderate Rain  
Wind Chill: 34°   Ceiling: 900
Heat Index: 34°   Visibility: 7mi
Dew Point: 34°   Wind: 0mph
Humidity: 98%   Direction: NA
Pressure: 30.01"   Gusts: NA
Location:  37°N, 88.23°W
Report Text: K5M9 262355Z AUTO 00000KT 7SM RA BKN009 OVC014 01/01 A3001 RMK AO2 T00130010 10055 20013
Loading
Personal Weather Stations






























Interactive Weather Map New forecast layout! Learn more

10-Day Weather Forecast

Advertisements
Track Severe Weather on mobile